Location Regina, SK, CA

ob CSKREGIN1 210800Z AUTO 27012G17KT OVC 13/12 A2967 RMK SLPNO 

2020.09.21 0800 UTC
Wind from the W (274 degrees) at 13.8 MPH (12 KT) gusting to 19.6 MPH (17 KT)
Visibility    Mile(s)
Sky Conditions  overcast
Temperature 55.3 F (13 C)
Dew Point 52.7 F (12 C)
Relative Humidity 91%
Pressure   29.675 in. Hg (1005 hPa)
Rain  0.00 in.
Daily Rain 0.008 in.

Station Name  NWR Weather
Longitude, Latitude  -104.67, 50.5
Elevation 1894
Station URL http://users.accesscomm.ca/saskweather/station.htm
Software Type WeatherDisplay:10.37S